Country
Station

 

Weather  for  Northolt  -  United Kingdom    United Kingdom

  
22 °C (72 °F)
    
 
 

Current METAR for Northolt is :

EGWU 191450Z AUTO 23018G28KT 9999 // BKN036/// 22/13 Q1011

 

This is a report for Northolt - United Kingdom.
 
The report was made 50 minutes ago, at 14:50 UTC .
The wind was blowing at a speed of 9.3 meters per second (20.7 miles per hour) with gusts up to 14.4 meters per second (32.2 miles per hour) from southwest (230°).
 
The temperature was 22 °C (72 °F), with a dew-point at 13 °C (55 °F).
The temperature felt like 24 °C (76 °F).
 
The atmospheric pressure was 1011 hPa (29.85 inHg).
The relative humidity was 56.7%.
 
The overall visibility was greater than 10 kilometers (6.2 miles).
 

 
 
 
 

Country :   A   B   C   D   E   F   G   H   I   J   K   L   M   N   O   P   Q   R   S   T   U   V   W   Y   Z

 

Site Info  |  Disclaimer  |  Credits  |  Privacy
Contact us  |  Add to favorites
© 2013-2018 METARs - All rights reserved